Time;durP1;ratioP1;P1;durP2;ratioP2;P2;SDS_P1;SDS_P2;PMS_P1;PMS_P2;Temp;Humidity;BMP_temperature;BMP_pressure;BME280_temperature;BME280_humidity;BME280_pressure;Samples;Min_cycle;Max_cycle;Signal;HPM_P1;HPM_P2
2022/12/07 00:00:43;;;;;;;8.83;7.37;;;10.50;59.80;;;;;;5052211;28;20196;-59
2022/12/07 00:03:09;;;;;;;8.43;6.40;;;10.50;59.80;;;;;;5038850;28;20276;-59
2022/12/07 00:05:34;;;;;;;6.93;6.23;;;10.40;59.60;;;;;;5045302;28;20227;-59
2022/12/07 00:08:00;;;;;;;12.60;7.40;;;10.50;59.80;;;;;;5044124;28;20232;-60
2022/12/07 00:10:25;;;;;;;9.03;7.00;;;10.40;59.90;;;;;;5037864;28;20234;-59
2022/12/07 00:12:51;;;;;;;9.17;6.90;;;10.40;59.90;;;;;;5042471;28;20185;-58
2022/12/07 00:15:17;;;;;;;7.40;6.60;;;10.40;60.00;;;;;;5034214;28;20201;-59
2022/12/07 00:17:42;;;;;;;10.10;6.37;;;10.30;60.20;;;;;;5038859;28;20640;-59
2022/12/07 00:20:08;;;;;;;9.93;6.93;;;10.30;60.30;;;;;;5044406;28;20194;-59
2022/12/07 00:22:34;;;;;;;8.30;6.60;;;10.40;60.20;;;;;;5039011;28;20293;-58
2022/12/07 00:24:59;;;;;;;7.20;6.50;;;10.40;60.10;;;;;;5034600;28;20504;-58
2022/12/07 00:27:26;;;;;;;7.37;6.53;;;10.40;60.00;;;;;;5035682;28;20220;-59
2022/12/07 00:29:52;;;;;;;9.90;6.90;;;10.40;59.80;;;;;;5040293;28;20204;-59
2022/12/07 00:32:17;;;;;;;8.20;7.00;;;10.50;59.90;;;;;;5037834;28;20442;-59
2022/12/07 00:34:43;;;;;;;9.30;7.20;;;10.50;59.80;;;;;;5044361;28;20193;-59
2022/12/07 00:37:09;;;;;;;8.03;6.97;;;10.50;59.80;;;;;;5039838;28;20204;-59
2022/12/07 00:39:34;;;;;;;7.30;6.60;;;10.50;59.70;;;;;;5045956;28;20197;-59
2022/12/07 00:42:00;;;;;;;8.00;7.03;;;10.50;59.60;;;;;;5048322;28;20196;-59
2022/12/07 00:44:25;;;;;;;9.87;7.30;;;10.60;59.70;;;;;;5044055;28;20195;-59
2022/12/07 00:46:51;;;;;;;8.63;6.93;;;10.60;59.70;;;;;;5045211;28;20229;-59
2022/12/07 00:49:16;;;;;;;8.53;6.97;;;10.60;59.50;;;;;;5040222;28;20196;-59
2022/12/07 00:51:42;;;;;;;8.27;6.83;;;10.70;59.40;;;;;;5051410;28;20203;-59
2022/12/07 00:54:08;;;;;;;8.70;6.67;;;10.70;59.20;;;;;;5042335;28;20197;-59
2022/12/07 00:56:33;;;;;;;8.13;7.33;;;10.60;59.10;;;;;;5047472;28;20202;-59
2022/12/07 00:59:01;;;;;;;8.17;7.10;;;10.60;59.10;;;;;;5050487;28;20565;-59
2022/12/07 01:01:31;;;;;;;11.67;7.80;;;10.60;58.90;;;;;;5042959;28;20189;-59
2022/12/07 01:03:56;;;;;;;7.60;6.90;;;10.60;59.00;;;;;;5042794;28;20444;-59
2022/12/07 01:06:24;;;;;;;6.83;6.20;;;10.60;59.00;;;;;;5040703;28;20493;-59
2022/12/07 01:08:50;;;;;;;7.60;6.50;;;10.60;59.10;;;;;;5043162;28;20202;-59
2022/12/07 01:11:19;;;;;;;7.63;6.83;;;10.60;59.10;;;;;;5049135;28;20443;-59
2022/12/07 01:13:45;;;;;;;8.10;7.27;;;10.60;59.00;;;;;;5038254;28;20435;-59
2022/12/07 01:16:16;;;;;;;9.20;7.17;;;10.60;58.90;;;;;;5041602;28;20470;-59
2022/12/07 01:18:42;;;;;;;9.03;6.83;;;10.60;58.90;;;;;;5045939;28;20938;-59
2022/12/07 01:21:25;;;;;;;7.90;7.10;;;10.60;58.80;;;;;;5051299;28;20431;-59
2022/12/07 01:23:52;;;;;;;8.07;7.30;;;10.60;58.90;;;;;;5044657;28;20482;-59
2022/12/07 01:26:20;;;;;;;8.90;6.60;;;10.60;58.80;;;;;;5042390;28;20479;-59
2022/12/07 01:28:47;;;;;;;9.30;6.93;;;10.60;58.70;;;;;;5035422;28;20549;-59
2022/12/07 01:31:19;;;;;;;7.60;6.80;;;10.60;58.60;;;;;;5048253;28;20447;-59
2022/12/07 01:33:47;;;;;;;7.83;7.07;;;10.60;58.90;;;;;;5042123;28;21032;-59
2022/12/07 01:36:15;;;;;;;8.13;6.40;;;10.50;59.00;;;;;;5037952;28;20443;-58
2022/12/07 01:38:41;;;;;;;7.10;6.50;;;10.40;59.20;;;;;;5049739;28;20467;-59
2022/12/07 01:41:07;;;;;;;7.33;6.60;;;10.40;59.20;;;;;;5047288;28;21159;-59
2022/12/07 01:43:33;;;;;;;7.57;6.80;;;10.50;59.50;;;;;;5036975;28;20275;-59
2022/12/07 01:46:02;;;;;;;8.73;6.93;;;10.50;59.30;;;;;;5038508;28;20812;-59
2022/12/07 01:48:33;;;;;;;9.23;6.90;;;10.50;59.00;;;;;;5040394;28;20443;-59
2022/12/07 01:51:03;;;;;;;8.00;7.20;;;10.50;59.60;;;;;;5041308;28;20467;-59
2022/12/07 01:53:30;;;;;;;7.77;6.70;;;10.40;59.00;;;;;;5038251;28;20458;-58
2022/12/07 01:55:57;;;;;;;7.60;6.90;;;10.40;59.10;;;;;;5041239;28;20804;-58
2022/12/07 01:58:24;;;;;;;8.07;7.27;;;10.50;59.10;;;;;;5035536;28;20438;-59
2022/12/07 02:00:49;;;;;;;8.03;7.23;;;10.50;59.00;;;;;;5042146;28;20439;-59
2022/12/07 02:03:30;;;;;;;7.47;6.67;;;10.50;58.80;;;;;;5042699;28;20789;-58
2022/12/07 02:05:56;;;;;;;8.80;7.30;;;10.60;58.90;;;;;;5032879;28;20193;-58
2022/12/07 02:08:22;;;;;;;7.93;6.93;;;10.50;58.90;;;;;;5046776;28;20872;-59
2022/12/07 02:10:47;;;;;;;7.83;7.03;;;10.50;59.10;;;;;;5039842;28;20474;-59
2022/12/07 02:13:18;;;;;;;9.67;8.00;;;10.50;59.10;;;;;;5046586;28;20188;-58
2022/12/07 02:15:52;;;;;;;9.00;7.17;;;10.50;59.10;;;;;;5037601;28;20291;-59
2022/12/07 02:18:28;;;;;;;8.27;7.13;;;10.50;59.10;;;;;;5044409;28;20446;-59
2022/12/07 02:20:59;;;;;;;8.47;7.07;;;10.40;59.10;;;;;;5038743;28;20451;-58
2022/12/07 02:23:37;;;;;;;7.93;7.13;;;10.40;59.00;;;;;;5041142;28;20483;-59
2022/12/07 02:26:08;;;;;;;9.23;7.43;;;10.40;59.00;;;;;;5041530;28;20477;-59
2022/12/07 02:28:35;;;;;;;8.40;7.20;;;10.50;58.80;;;;;;5041531;28;20466;-59
2022/12/07 02:31:07;;;;;;;9.07;8.20;;;10.50;58.70;;;;;;5037873;28;20448;-58
2022/12/07 02:33:56;;;;;;;8.50;7.30;;;10.50;58.50;;;;;;5031503;28;20434;-58
2022/12/07 02:36:28;;;;;;;10.80;7.40;;;10.50;58.50;;;;;;5033597;28;20460;-59
2022/12/07 02:39:07;;;;;;;8.90;7.20;;;10.50;58.50;;;;;;5028060;28;20547;-58
2022/12/07 02:41:46;;;;;;;9.13;7.13;;;10.50;58.40;;;;;;5042920;28;20977;-58
2022/12/07 02:44:16;;;;;;;9.47;8.47;;;10.50;58.10;;;;;;5031176;28;20965;-59
2022/12/07 02:47:05;;;;;;;9.97;7.13;;;10.40;58.10;;;;;;5048775;28;20553;-58
2022/12/07 02:49:31;;;;;;;10.43;8.13;;;10.50;58.10;;;;;;5040220;28;20458;-58
2022/12/07 02:51:57;;;;;;;8.93;7.63;;;10.40;57.90;;;;;;5043760;28;20442;-58
2022/12/07 02:54:23;;;;;;;8.50;7.43;;;10.50;57.90;;;;;;5036105;28;20501;-58
2022/12/07 02:56:48;;;;;;;10.53;7.63;;;10.50;57.90;;;;;;5038592;28;20188;-59
2022/12/07 02:59:45;;;;;;;11.67;8.23;;;10.40;57.80;;;;;;5059552;28;20203;-59
2022/12/07 03:02:29;;;;;;;9.17;7.80;;;10.50;57.80;;;;;;5043205;28;20292;-59
2022/12/07 03:05:07;;;;;;;8.60;6.40;;;10.50;57.70;;;;;;5041020;28;20518;-59
2022/12/07 03:07:59;;;;;;;8.07;6.90;;;10.50;57.60;;;;;;5038931;28;20629;-59
2022/12/07 03:10:35;;;;;;;8.33;7.53;;;10.50;57.70;;;;;;5049112;28;20883;-58
2022/12/07 03:13:26;;;;;;;8.03;7.27;;;10.50;57.60;;;;;;5045226;28;20447;-59
2022/12/07 03:16:04;;;;;;;8.30;7.33;;;10.50;57.60;;;;;;5040490;28;20466;-59
2022/12/07 03:18:36;;;;;;;8.40;7.40;;;10.40;57.60;;;;;;5046873;28;20546;-59
2022/12/07 03:21:09;;;;;;;8.57;7.20;;;10.40;57.70;;;;;;5049126;28;20430;-58
2022/12/07 03:23:37;;;;;;;9.30;8.27;;;10.50;57.90;;;;;;5036767;28;21066;-59
2022/12/07 03:26:05;;;;;;;8.80;7.37;;;10.40;57.70;;;;;;5051830;28;20457;-59
2022/12/07 03:28:38;;;;;;;8.30;7.30;;;10.50;57.80;;;;;;5051819;28;20852;-59
2022/12/07 03:31:11;;;;;;;9.07;7.40;;;10.50;57.80;;;;;;5040964;28;20439;-59
2022/12/07 03:33:47;;;;;;;7.83;6.70;;;10.40;57.70;;;;;;5042206;28;20440;-59
2022/12/07 03:36:37;;;;;;;7.93;7.23;;;10.40;57.80;;;;;;5045801;28;21475;-59
2022/12/07 03:39:33;;;;;;;8.73;7.17;;;10.40;57.80;;;;;;5050046;28;20801;-58
2022/12/07 03:42:02;;;;;;;9.73;8.20;;;10.40;57.80;;;;;;5052275;28;20465;-59
2022/12/07 03:44:28;;;;;;;8.83;7.30;;;10.30;57.80;;;;;;5043533;28;20440;-59
2022/12/07 03:47:01;;;;;;;23.80;13.10;;;10.30;57.90;;;;;;5046007;28;20848;-58
2022/12/07 03:49:43;;;;;;;20.97;13.03;;;10.30;57.90;;;;;;5044412;28;20493;-58
2022/12/07 03:52:22;;;;;;;20.27;11.87;;;10.30;57.90;;;;;;5047331;28;20573;-58
2022/12/07 03:55:11;;;;;;;22.10;11.17;;;10.30;57.90;;;;;;5051041;28;20443;-58
2022/12/07 03:57:39;;;;;;;20.90;12.50;;;10.20;57.80;;;;;;5045379;28;20498;-58
2022/12/07 04:00:07;;;;;;;19.43;12.50;;;10.20;57.90;;;;;;5046767;28;21036;-59
2022/12/07 04:02:33;;;;;;;14.73;10.63;;;10.20;58.10;;;;;;5038530;28;20853;-58
2022/12/07 04:05:00;;;;;;;16.87;9.60;;;10.10;58.10;;;;;;5045381;28;20491;-59
2022/12/07 04:07:26;;;;;;;13.17;9.60;;;10.10;58.30;;;;;;5045969;28;20486;-59
2022/12/07 04:09:51;;;;;;;11.87;8.83;;;10.00;58.30;;;;;;5044709;28;20449;-59
2022/12/07 04:12:17;;;;;;;12.50;9.10;;;10.00;58.40;;;;;;5045085;28;20251;-59
2022/12/07 04:14:43;;;;;;;15.40;8.30;;;10.00;58.50;;;;;;5041628;28;20196;-58
2022/12/07 04:17:09;;;;;;;13.33;9.00;;;10.00;58.50;;;;;;5042955;28;20200;-59
2022/12/07 04:19:34;;;;;;;14.73;10.90;;;10.00;58.50;;;;;;5039718;28;20687;-59
2022/12/07 04:22:01;;;;;;;13.20;9.87;;;10.00;58.20;;;;;;5038462;28;20185;-59
2022/12/07 04:24:27;;;;;;;10.83;8.57;;;10.00;58.20;;;;;;5034368;28;20224;-59
2022/12/07 04:26:54;;;;;;;11.47;8.10;;;9.90;58.90;;;;;;5037571;28;20486;-59
2022/12/07 04:29:20;;;;;;;8.90;8.00;;;9.70;59.10;;;;;;5038262;28;20442;-59
2022/12/07 04:31:46;;;;;;;10.43;8.20;;;9.00;60.80;;;;;;5039809;28;20502;-58
2022/12/07 04:34:12;;;;;;;9.13;8.00;;;8.80;62.70;;;;;;5038648;28;20530;-59
2022/12/07 04:36:39;;;;;;;9.90;8.03;;;8.70;62.70;;;;;;5036094;28;20198;-58
2022/12/07 04:39:07;;;;;;;10.43;7.70;;;8.80;62.70;;;;;;5040497;28;21019;-58
2022/12/07 04:41:33;;;;;;;11.80;8.43;;;9.00;62.30;;;;;;5042735;28;20953;-58
2022/12/07 04:44:03;;;;;;;11.57;8.50;;;9.10;61.70;;;;;;5042524;28;20447;-58
2022/12/07 04:46:30;;;;;;;10.50;7.90;;;9.10;61.60;;;;;;5034683;28;21010;-58
2022/12/07 04:48:56;;;;;;;12.93;8.37;;;9.20;61.30;;;;;;5039479;28;20448;-58
2022/12/07 04:51:25;;;;;;;9.17;7.60;;;9.20;61.00;;;;;;5031702;28;20451;-58
2022/12/07 04:53:51;;;;;;;11.40;8.10;;;9.30;61.00;;;;;;5031913;28;20205;-58
2022/12/07 04:56:17;;;;;;;11.13;8.10;;;9.30;60.60;;;;;;5039448;28;21023;-58
2022/12/07 04:58:45;;;;;;;11.03;6.93;;;9.40;60.50;;;;;;5032575;28;20443;-58
2022/12/07 05:01:11;;;;;;;11.50;8.50;;;9.10;60.70;;;;;;5040810;28;20844;-58
2022/12/07 05:03:37;;;;;;;9.60;7.60;;;8.60;61.80;;;;;;5033885;28;20954;-59
2022/12/07 05:06:03;;;;;;;9.80;7.47;;;8.70;62.90;;;;;;5044959;28;20577;-59
2022/12/07 05:08:28;;;;;;;9.57;8.00;;;8.90;62.70;;;;;;5034244;28;20545;-59
2022/12/07 05:10:54;;;;;;;8.17;6.90;;;9.00;62.30;;;;;;5040856;28;20501;-58
2022/12/07 05:13:19;;;;;;;11.20;8.50;;;9.10;61.80;;;;;;5034452;28;20613;-59
2022/12/07 05:15:47;;;;;;;7.90;7.10;;;9.30;61.30;;;;;;5038461;28;20193;-59
2022/12/07 05:18:12;;;;;;;8.57;7.37;;;9.30;60.60;;;;;;5035012;28;20207;-58
2022/12/07 05:20:39;;;;;;;10.53;8.03;;;9.40;60.20;;;;;;5047724;28;20443;-58
2022/12/07 05:23:05;;;;;;;9.10;6.97;;;9.40;59.70;;;;;;5037131;28;20262;-58
2022/12/07 05:25:30;;;;;;;11.67;7.83;;;9.40;59.60;;;;;;5030672;28;22980;-59
2022/12/07 05:27:56;;;;;;;12.43;8.57;;;9.40;59.50;;;;;;5034334;28;20228;-58
2022/12/07 05:30:23;;;;;;;8.40;7.47;;;9.40;59.40;;;;;;5039580;28;20203;-58
2022/12/07 05:32:49;;;;;;;17.53;8.07;;;9.40;59.30;;;;;;5033701;28;20211;-58
2022/12/07 05:35:14;;;;;;;10.13;8.30;;;9.40;59.20;;;;;;5036760;28;20443;-58
2022/12/07 05:37:40;;;;;;;8.67;7.30;;;9.40;59.20;;;;;;5035226;28;20316;-60
2022/12/07 05:40:06;;;;;;;11.63;7.67;;;9.40;59.10;;;;;;5032837;28;20200;-59
2022/12/07 05:42:32;;;;;;;9.93;8.00;;;9.30;58.90;;;;;;5041256;28;20195;-58
2022/12/07 05:44:57;;;;;;;9.93;7.80;;;9.30;59.10;;;;;;5037383;28;20443;-58
2022/12/07 05:47:23;;;;;;;11.20;8.67;;;9.30;59.10;;;;;;5036795;28;20224;-58
2022/12/07 05:49:49;;;;;;;10.13;7.40;;;9.30;59.30;;;;;;5032762;28;20655;-59
2022/12/07 05:52:14;;;;;;;10.20;8.20;;;9.30;59.30;;;;;;5040802;28;20196;-58
2022/12/07 05:54:40;;;;;;;11.83;7.93;;;9.40;59.30;;;;;;5041828;28;20668;-58
2022/12/07 05:57:06;;;;;;;13.53;8.40;;;9.40;59.30;;;;;;5047504;28;20644;-59
2022/12/07 05:59:31;;;;;;;10.40;7.57;;;9.40;59.20;;;;;;5038611;28;20207;-58
2022/12/07 06:01:59;;;;;;;10.63;8.50;;;9.30;59.10;;;;;;5055565;28;20188;-58
2022/12/07 06:04:27;;;;;;;11.30;8.73;;;9.30;59.20;;;;;;5043148;28;20206;-58
2022/12/07 06:06:53;;;;;;;9.80;8.43;;;9.40;59.30;;;;;;5039672;28;20507;-58
2022/12/07 06:09:20;;;;;;;11.03;8.03;;;9.30;59.30;;;;;;5035510;28;20882;-59
2022/12/07 06:14:30;;;;;;;12.37;8.30;;;9.20;59.70;;;;;;5035828;28;20466;-58
2022/12/07 06:16:55;;;;;;;11.47;10.03;;;9.20;59.80;;;;;;5036193;28;20922;-58
2022/12/07 06:19:21;;;;;;;11.43;8.63;;;9.20;59.80;;;;;;5037005;28;20683;-59
2022/12/07 06:21:47;;;;;;;11.63;8.20;;;9.20;59.70;;;;;;5033180;28;20264;-59
2022/12/07 06:24:14;;;;;;;11.50;7.93;;;9.30;60.20;;;;;;5036286;28;20286;-59
2022/12/07 06:26:39;;;;;;;13.60;8.60;;;9.50;63.20;;;;;;5033830;28;20243;-59
2022/12/07 06:29:05;;;;;;;11.77;8.17;;;9.80;64.30;;;;;;5035529;28;20946;-59
2022/12/07 06:31:31;;;;;;;9.60;8.50;;;10.10;62.60;;;;;;5036820;28;20205;-59
2022/12/07 06:34:02;;;;;;;12.77;9.50;;;10.40;61.10;;;;;;5034749;28;20192;-59
2022/12/07 06:36:28;;;;;;;11.33;9.60;;;10.60;59.50;;;;;;5034166;28;20913;-60
2022/12/07 06:38:53;;;;;;;14.60;11.10;;;10.80;59.00;;;;;;5036660;28;20522;-59
2022/12/07 06:41:19;;;;;;;14.60;10.67;;;11.00;58.40;;;;;;5042600;28;21365;-59
2022/12/07 06:43:45;;;;;;;11.73;9.93;;;11.10;57.90;;;;;;5034860;28;20198;-59
2022/12/07 06:46:10;;;;;;;10.90;9.00;;;11.20;57.20;;;;;;5044408;28;20571;-59
2022/12/07 06:48:36;;;;;;;9.77;8.70;;;11.30;56.60;;;;;;5048369;28;20271;-59
2022/12/07 06:51:01;;;;;;;11.73;8.33;;;11.30;55.50;;;;;;5044576;28;20199;-59
2022/12/07 06:53:27;;;;;;;10.70;8.90;;;11.30;54.90;;;;;;5051876;28;20203;-59
2022/12/07 06:55:52;;;;;;;10.33;9.27;;;11.30;54.70;;;;;;5050167;28;20192;-59
2022/12/07 06:58:18;;;;;;;11.17;9.07;;;11.30;54.80;;;;;;5034983;28;20236;-59
2022/12/07 07:00:45;;;;;;;11.30;8.47;;;11.30;54.70;;;;;;5046888;28;20256;-59
2022/12/07 07:03:10;;;;;;;11.27;9.10;;;11.30;54.80;;;;;;5046866;28;20224;-59
2022/12/07 07:05:36;;;;;;;11.67;9.20;;;11.30;55.10;;;;;;5048514;28;20912;-59
2022/12/07 07:08:02;;;;;;;10.47;9.30;;;11.40;54.80;;;;;;5039083;28;20224;-59
2022/12/07 07:10:28;;;;;;;11.13;9.70;;;11.40;54.30;;;;;;5037882;28;20197;-59
2022/12/07 07:12:53;;;;;;;10.33;8.50;;;11.40;54.70;;;;;;5047645;28;20458;-59
2022/12/07 07:15:19;;;;;;;13.23;9.67;;;11.40;54.60;;;;;;5040714;28;20193;-59
2022/12/07 07:17:45;;;;;;;10.70;8.97;;;11.40;54.80;;;;;;5050997;28;20208;-59
2022/12/07 07:20:11;;;;;;;13.40;9.40;;;11.50;54.90;;;;;;5052804;28;20254;-58
2022/12/07 07:22:36;;;;;;;18.17;13.37;;;11.50;54.80;;;;;;5049934;28;20254;-60
2022/12/07 07:25:02;;;;;;;15.70;11.90;;;11.60;54.50;;;;;;5052875;28;20439;-59
2022/12/07 07:27:28;;;;;;;14.07;10.63;;;11.60;54.30;;;;;;5041149;28;20233;-59
2022/12/07 07:29:53;;;;;;;13.30;10.30;;;11.50;53.70;;;;;;5044414;28;20208;-59
2022/12/07 07:32:19;;;;;;;12.17;9.00;;;11.50;54.10;;;;;;5040676;28;20213;-59
2022/12/07 07:34:44;;;;;;;11.77;9.40;;;11.60;54.20;;;;;;5040849;28;20204;-59
2022/12/07 07:37:12;;;;;;;11.17;9.50;;;11.60;54.40;;;;;;5044096;28;20215;-59
2022/12/07 07:39:38;;;;;;;9.53;8.40;;;11.70;54.10;;;;;;5040111;28;20200;-59
2022/12/07 07:42:04;;;;;;;11.93;9.70;;;11.70;53.90;;;;;;5045429;28;20444;-59
2022/12/07 07:44:29;;;;;;;13.00;9.53;;;11.80;54.20;;;;;;5050685;28;20196;-59
2022/12/07 07:46:55;;;;;;;14.23;10.00;;;11.80;54.00;;;;;;5050972;28;20486;-59
2022/12/07 07:49:20;;;;;;;11.80;8.80;;;11.90;54.10;;;;;;5045042;28;20242;-59
2022/12/07 07:51:46;;;;;;;11.70;9.00;;;11.90;53.50;;;;;;5049569;28;20199;-59
2022/12/07 07:54:11;;;;;;;11.57;9.27;;;11.90;53.60;;;;;;5050163;28;20629;-60
2022/12/07 07:56:37;;;;;;;8.90;7.87;;;12.00;53.60;;;;;;5047993;28;20604;-59
2022/12/07 07:59:02;;;;;;;12.60;9.30;;;12.00;53.00;;;;;;5047236;28;20197;-59
2022/12/07 08:01:28;;;;;;;10.87;9.03;;;11.90;53.00;;;;;;5037477;28;20220;-59
2022/12/07 08:03:54;;;;;;;11.40;9.67;;;11.90;53.30;;;;;;5047129;28;20201;-58
2022/12/07 08:06:19;;;;;;;12.23;9.50;;;11.80;53.00;;;;;;5042542;28;20190;-59
2022/12/07 08:08:45;;;;;;;12.37;9.30;;;11.80;53.40;;;;;;5046478;28;20257;-59
2022/12/07 08:11:11;;;;;;;9.67;8.57;;;11.80;53.40;;;;;;5045303;28;20243;-59
2022/12/07 08:13:36;;;;;;;11.57;8.43;;;11.70;53.20;;;;;;5042188;28;20246;-59
2022/12/07 08:16:08;;;;;;;12.23;8.23;;;11.70;52.90;;;;;;5044811;28;20192;-59
2022/12/07 08:18:38;;;;;;;9.93;8.37;;;11.70;53.40;;;;;;5045968;28;20192;-59
2022/12/07 08:21:04;;;;;;;9.60;8.40;;;11.70;53.60;;;;;;5043473;28;20486;-59
2022/12/07 08:23:30;;;;;;;13.80;10.70;;;11.70;53.60;;;;;;5040739;28;20570;-59
2022/12/07 08:26:04;;;;;;;13.97;9.20;;;11.70;53.80;;;;;;5045146;28;20450;-59
2022/12/07 08:28:30;;;;;;;17.30;9.33;;;11.80;53.70;;;;;;5045668;28;20480;-59
2022/12/07 08:31:00;;;;;;;15.90;10.30;;;11.90;53.90;;;;;;5045958;28;20834;-59
2022/12/07 08:33:26;;;;;;;18.83;12.00;;;11.90;53.50;;;;;;5044942;28;20509;-59
2022/12/07 08:35:51;;;;;;;17.70;9.70;;;12.00;53.40;;;;;;5046789;28;20439;-59
2022/12/07 08:38:17;;;;;;;15.03;10.40;;;12.00;52.90;;;;;;5047314;28;20330;-59
2022/12/07 08:40:42;;;;;;;13.93;10.10;;;12.10;52.80;;;;;;5035211;28;20563;-59
2022/12/07 08:43:08;;;;;;;14.43;10.30;;;12.10;52.50;;;;;;5044119;28;20192;-59
2022/12/07 08:45:35;;;;;;;15.17;9.57;;;12.10;52.80;;;;;;5051223;28;20594;-59
2022/12/07 08:48:12;;;;;;;11.50;9.07;;;12.10;52.80;;;;;;5044972;28;20584;-59
2022/12/07 08:50:38;;;;;;;12.00;9.43;;;12.20;52.70;;;;;;5048599;28;20457;-59
2022/12/07 08:53:05;;;;;;;13.20;9.57;;;12.20;52.10;;;;;;5045391;28;20431;-59
2022/12/07 08:55:31;;;;;;;14.27;9.30;;;12.20;52.10;;;;;;5039698;28;20196;-60
2022/12/07 08:58:03;;;;;;;11.00;8.23;;;12.30;51.80;;;;;;5046959;28;20439;-59
2022/12/07 09:00:28;;;;;;;13.60;9.10;;;12.30;51.30;;;;;;5044254;28;20970;-58
2022/12/07 09:02:54;;;;;;;10.80;9.23;;;12.30;51.40;;;;;;5047558;28;20435;-59
2022/12/07 09:05:20;;;;;;;12.63;8.80;;;12.30;51.00;;;;;;5050379;28;20570;-59
2022/12/07 09:07:49;;;;;;;13.07;10.10;;;12.30;50.70;;;;;;5037383;28;20699;-59
2022/12/07 09:10:15;;;;;;;12.90;8.80;;;12.40;50.60;;;;;;5036478;28;20525;-59
2022/12/07 09:12:40;;;;;;;10.40;6.80;;;12.40;50.40;;;;;;5044916;28;20440;-59
2022/12/07 09:15:07;;;;;;;7.53;6.73;;;12.40;49.20;;;;;;5049184;28;20196;-58
2022/12/07 09:17:34;;;;;;;11.23;7.63;;;12.30;48.70;;;;;;5047077;28;20323;-58
2022/12/07 09:20:00;;;;;;;10.13;7.13;;;12.20;48.60;;;;;;5042706;28;21033;-59
2022/12/07 09:22:32;;;;;;;8.90;7.63;;;12.10;48.70;;;;;;5033633;28;20440;-58
2022/12/07 09:25:01;;;;;;;8.87;6.70;;;12.00;49.20;;;;;;5028339;28;20479;-58
2022/12/07 09:27:28;;;;;;;10.07;7.17;;;11.90;49.30;;;;;;5038210;28;20495;-58
2022/12/07 09:29:53;;;;;;;8.33;6.93;;;11.90;49.50;;;;;;5036070;28;20461;-59
2022/12/07 09:32:19;;;;;;;7.67;6.90;;;11.80;49.90;;;;;;5039993;28;20482;-58
2022/12/07 09:34:45;;;;;;;8.00;5.77;;;11.80;49.80;;;;;;5041377;28;20196;-58
2022/12/07 09:37:11;;;;;;;9.33;6.33;;;11.80;49.80;;;;;;5048542;28;20983;-58
2022/12/07 09:39:40;;;;;;;7.27;6.40;;;11.70;49.70;;;;;;5039527;28;20243;-59
2022/12/07 09:42:07;;;;;;;9.37;6.77;;;11.70;49.70;;;;;;5044375;28;20238;-58
2022/12/07 09:44:34;;;;;;;8.50;6.73;;;11.70;49.80;;;;;;5045229;28;20438;-58
2022/12/07 09:47:01;;;;;;;7.20;6.13;;;11.70;49.30;;;;;;5050486;28;20853;-59
2022/12/07 09:49:29;;;;;;;8.77;6.30;;;11.60;48.60;;;;;;5040122;28;20471;-58
2022/12/07 09:52:04;;;;;;;7.43;6.17;;;11.40;48.60;;;;;;5045541;28;20454;-59
2022/12/07 09:54:30;;;;;;;6.47;5.27;;;11.50;52.10;;;;;;5032960;28;20819;-59
2022/12/07 09:56:56;;;;;;;9.30;5.03;;;11.70;49.80;;;;;;5039453;28;20951;-59
2022/12/07 09:59:22;;;;;;;7.83;5.60;;;11.80;48.70;;;;;;5039466;28;20442;-59
2022/12/07 10:01:49;;;;;;;6.23;5.50;;;11.80;48.10;;;;;;5039023;28;20192;-59
2022/12/07 10:04:25;;;;;;;7.33;4.63;;;11.70;47.80;;;;;;5043232;28;20499;-59
2022/12/07 10:06:51;;;;;;;6.67;5.80;;;11.50;48.40;;;;;;5031125;28;20545;-59
2022/12/07 10:09:19;;;;;;;6.60;4.83;;;11.50;48.30;;;;;;5029987;28;21000;-60
2022/12/07 10:12:01;;;;;;;6.00;5.20;;;11.50;48.40;;;;;;5049866;28;20449;-59
2022/12/07 10:14:29;;;;;;;7.57;5.77;;;11.60;48.60;;;;;;5052918;28;20442;-59
2022/12/07 10:16:55;;;;;;;6.60;5.93;;;11.60;48.70;;;;;;5048210;28;20490;-60
2022/12/07 10:19:32;;;;;;;8.70;5.53;;;11.70;48.90;;;;;;5050150;28;21161;-60
2022/12/07 10:22:14;;;;;;;5.93;4.60;;;11.60;49.30;;;;;;5050467;28;20253;-60
2022/12/07 10:24:44;;;;;;;6.03;4.50;;;11.30;49.40;;;;;;5041241;28;20565;-59
2022/12/07 10:27:29;;;;;;;5.53;3.80;;;11.10;49.70;;;;;;5038431;28;20491;-59
2022/12/07 10:29:58;;;;;;;6.03;3.43;;;11.30;49.90;;;;;;5041449;28;20795;-59
2022/12/07 10:32:35;;;;;;;4.53;4.10;;;11.40;49.70;;;;;;5028821;28;20478;-59
2022/12/07 10:35:26;;;;;;;5.63;3.90;;;11.30;50.20;;;;;;5039236;28;20455;-59
2022/12/07 10:37:53;;;;;;;6.23;3.60;;;11.30;50.20;;;;;;5042899;28;20921;-60
2022/12/07 10:40:34;;;;;;;6.60;3.80;;;11.30;49.80;;;;;;5044344;28;20452;-59
2022/12/07 10:43:01;;;;;;;4.90;3.90;;;11.10;50.00;;;;;;5042650;28;20538;-59
2022/12/07 10:45:27;;;;;;;3.60;3.30;;;11.00;50.30;;;;;;5044595;28;20442;-59
2022/12/07 10:48:11;;;;;;;6.00;3.70;;;11.00;50.40;;;;;;5046316;28;20478;-59
2022/12/07 10:51:00;;;;;;;4.90;4.27;;;10.80;50.50;;;;;;5036956;28;20215;-59
2022/12/07 10:53:51;;;;;;;4.50;4.03;;;10.70;51.30;;;;;;5041759;28;20456;-61
2022/12/07 10:56:32;;;;;;;4.07;3.67;;;10.90;51.50;;;;;;5034735;28;20448;-60
2022/12/07 10:59:03;;;;;;;4.90;4.00;;;10.90;51.40;;;;;;5046697;28;20517;-60
2022/12/07 11:01:57;;;;;;;5.10;4.40;;;10.80;51.10;;;;;;5039576;28;20592;-60
2022/12/07 11:04:30;;;;;;;6.37;3.97;;;10.90;51.20;;;;;;5039280;28;20535;-60
2022/12/07 11:07:36;;;;;;;4.60;4.10;;;11.00;51.00;;;;;;5039177;28;20566;-60
2022/12/07 11:10:12;;;;;;;4.13;3.73;;;11.00;51.00;;;;;;5038872;28;20446;-58
2022/12/07 11:12:59;;;;;;;5.10;4.27;;;11.10;51.30;;;;;;5045785;28;20447;-58
2022/12/07 11:15:37;;;;;;;5.80;4.33;;;11.20;51.70;;;;;;5047482;28;21040;-60
2022/12/07 11:18:22;;;;;;;6.50;3.80;;;11.30;51.30;;;;;;5052190;28;20435;-60
2022/12/07 11:21:04;;;;;;;11.00;4.20;;;11.20;51.40;;;;;;5039932;28;20937;-60
2022/12/07 11:23:38;;;;;;;5.33;4.43;;;11.30;51.30;;;;;;5036864;28;20921;-57
2022/12/07 11:26:45;;;;;;;7.43;4.97;;;11.40;51.40;;;;;;5041074;28;20857;-58
2022/12/07 11:29:32;;;;;;;5.10;3.83;;;11.40;51.30;;;;;;5030898;28;20467;-60
2022/12/07 11:32:19;;;;;;;6.00;4.13;;;11.40;51.00;;;;;;5042718;28;20451;-60
2022/12/07 11:34:47;;;;;;;8.07;4.53;;;11.40;51.30;;;;;;5045592;28;20496;-60
2022/12/07 11:37:20;;;;;;;5.50;4.70;;;11.30;51.80;;;;;;5044517;28;20575;-59
2022/12/07 11:40:18;;;;;;;5.20;4.37;;;11.30;52.30;;;;;;5037461;28;20443;-59
2022/12/07 11:43:01;;;;;;;5.10;4.60;;;11.30;52.40;;;;;;5038627;28;20543;-57
2022/12/07 11:45:31;;;;;;;5.40;4.37;;;11.20;52.40;;;;;;5033834;28;20454;-57
2022/12/07 11:48:09;;;;;;;5.00;3.50;;;11.30;52.50;;;;;;5037988;28;20574;-58
2022/12/07 11:50:50;;;;;;;5.00;4.50;;;11.50;52.80;;;;;;5047157;28;20557;-58
2022/12/07 11:53:26;;;;;;;5.50;3.53;;;11.40;53.60;;;;;;5036412;28;20475;-57
2022/12/07 11:56:11;;;;;;;5.07;4.40;;;11.30;53.70;;;;;;5039757;28;20951;-57
2022/12/07 11:58:45;;;;;;;5.30;4.10;;;11.20;53.90;;;;;;5036705;28;20908;-57
2022/12/07 12:01:13;;;;;;;4.93;4.43;;;11.00;54.70;;;;;;5043064;28;20439;-57
2022/12/07 12:03:46;;;;;;;5.33;4.47;;;10.90;55.30;;;;;;5051089;28;20447;-57
2022/12/07 12:06:12;;;;;;;4.97;4.33;;;11.10;55.30;;;;;;5041609;28;20440;-58
2022/12/07 12:09:03;;;;;;;5.80;4.70;;;11.20;55.10;;;;;;5047797;28;20478;-57
2022/12/07 12:11:47;;;;;;;6.23;5.50;;;11.10;54.90;;;;;;5042932;28;20467;-57
2022/12/07 12:14:34;;;;;;;8.47;5.40;;;10.70;54.90;;;;;;5050517;28;20451;-57
2022/12/07 12:17:15;;;;;;;7.47;5.90;;;10.90;55.30;;;;;;5043681;28;20450;-57
2022/12/07 12:20:06;;;;;;;7.93;5.67;;;10.90;55.10;;;;;;5041714;28;20458;-57
2022/12/07 12:22:40;;;;;;;8.43;5.83;;;10.80;54.90;;;;;;5043977;28;20455;-57
2022/12/07 12:25:22;;;;;;;7.50;5.67;;;10.70;55.30;;;;;;5052308;28;20473;-57
2022/12/07 12:27:50;;;;;;;7.07;5.57;;;10.80;55.20;;;;;;5039428;28;20490;-57
2022/12/07 12:30:24;;;;;;;7.60;6.53;;;10.80;55.20;;;;;;5047163;28;20455;-57
2022/12/07 12:32:50;;;;;;;7.47;6.00;;;10.70;55.40;;;;;;5043203;28;20815;-57
2022/12/07 12:35:26;;;;;;;14.97;7.33;;;10.60;55.50;;;;;;5040865;28;20447;-57
2022/12/07 12:37:55;;;;;;;8.40;6.80;;;10.60;55.60;;;;;;5038554;28;20438;-58
2022/12/07 12:40:20;;;;;;;9.00;6.50;;;10.60;55.60;;;;;;5040470;28;21005;-57
2022/12/07 12:42:48;;;;;;;9.43;6.47;;;10.70;55.60;;;;;;5045352;28;20443;-57
2022/12/07 12:45:29;;;;;;;10.87;7.20;;;10.80;55.50;;;;;;5042829;28;20192;-57
2022/12/07 12:48:02;;;;;;;16.70;9.70;;;10.70;55.50;;;;;;5047751;28;20978;-57
2022/12/07 12:50:37;;;;;;;7.17;6.47;;;10.80;55.50;;;;;;5041528;28;20519;-57
2022/12/07 12:53:25;;;;;;;7.53;6.03;;;10.80;55.20;;;;;;5037585;28;20455;-57
2022/12/07 12:56:35;;;;;;;9.03;6.37;;;10.60;55.30;;;;;;5049131;28;20497;-57
2022/12/07 12:59:21;;;;;;;6.50;5.57;;;10.80;55.30;;;;;;5035949;28;20949;-57
2022/12/07 13:01:48;;;;;;;7.90;6.77;;;10.80;55.10;;;;;;5037219;28;20454;-57